SKVV/VVC METAR and TAF weather

Enter ICAO airport designator
Station Type Date Time Source
SKVV METAR 2021/01/01 01:00 UTC NOAA

SKVV 010100Z 30004KT 9999 FEW020 SCT090 22/21 Q1011 RMK A2988


Station Type Date Time Source
SKVV Decoded METAR 2021/01/01 01:00 UTC NOAA

Villavicencio / Vanguardia, Colombia (SKVV) 04-10N 073-37W 431M
Dec 31, 2020 - 08:00 PM EST / 2021.01.01 0100 UTC
Wind: from the WNW (300 degrees) at 5 MPH (4 KT):0
Visibility: greater than 7 mile(s):0
Sky conditions: partly cloudy
Temperature: 71 F (22 C)
Dew Point: 69 F (21 C)
Relative Humidity: 94%
Pressure (altimeter): 29.85 in. Hg (1011 hPa)
ob: SKVV 010100Z 30004KT 9999 FEW020 SCT090 22/21 Q1011 RMK A2988
cycle: 1

Station Type Date Time Source
SKVV TAF UTC NOAA

Error!

Example: see airport list